sensor_id;sensor_type;location;lat;lon;timestamp;P1;durP1;ratioP1;P2;durP2;ratioP2
69240;SDS011;56352;55.750;13.198;2023-03-09T00:01:17;4.93;;;1.60;;
69240;SDS011;56352;55.750;13.198;2023-03-09T00:03:44;2.78;;;1.40;;
69240;SDS011;56352;55.750;13.198;2023-03-09T00:06:10;3.15;;;1.40;;
69240;SDS011;56352;55.750;13.198;2023-03-09T00:08:37;2.55;;;1.30;;
69240;SDS011;56352;55.750;13.198;2023-03-09T00:11:04;2.45;;;1.13;;
69240;SDS011;56352;55.750;13.198;2023-03-09T00:13:31;2.50;;;1.08;;
69240;SDS011;56352;55.750;13.198;2023-03-09T00:16:06;3.70;;;1.42;;
69240;SDS011;56352;55.750;13.198;2023-03-09T00:18:32;1.58;;;1.33;;
69240;SDS011;56352;55.750;13.198;2023-03-09T00:20:59;2.40;;;1.38;;
69240;SDS011;56352;55.750;13.198;2023-03-09T00:23:25;1.55;;;1.45;;
69240;SDS011;56352;55.750;13.198;2023-03-09T00:25:51;1.50;;;1.20;;
69240;SDS011;56352;55.750;13.198;2023-03-09T00:28:18;1.98;;;1.15;;
69240;SDS011;56352;55.750;13.198;2023-03-09T00:30:44;1.42;;;1.10;;
69240;SDS011;56352;55.750;13.198;2023-03-09T00:33:11;2.70;;;1.30;;
69240;SDS011;56352;55.750;13.198;2023-03-09T00:35:37;1.38;;;0.85;;
69240;SDS011;56352;55.750;13.198;2023-03-09T00:38:04;2.35;;;1.17;;
69240;SDS011;56352;55.750;13.198;2023-03-09T00:40:30;1.02;;;0.90;;
69240;SDS011;56352;55.750;13.198;2023-03-09T00:42:57;1.13;;;0.90;;
69240;SDS011;56352;55.750;13.198;2023-03-09T00:45:23;5.25;;;1.13;;
69240;SDS011;56352;55.750;13.198;2023-03-09T00:47:49;1.33;;;0.90;;
69240;SDS011;56352;55.750;13.198;2023-03-09T00:50:16;2.08;;;1.15;;
69240;SDS011;56352;55.750;13.198;2023-03-09T00:52:42;1.38;;;0.93;;
69240;SDS011;56352;55.750;13.198;2023-03-09T00:55:09;3.45;;;1.00;;
69240;SDS011;56352;55.750;13.198;2023-03-09T00:57:36;1.90;;;1.23;;
69240;SDS011;56352;55.750;13.198;2023-03-09T01:00:02;1.20;;;0.98;;
69240;SDS011;56352;55.750;13.198;2023-03-09T01:02:30;1.77;;;1.13;;
69240;SDS011;56352;55.750;13.198;2023-03-09T01:04:57;2.13;;;1.23;;
69240;SDS011;56352;55.750;13.198;2023-03-09T01:07:23;1.52;;;1.20;;
69240;SDS011;56352;55.750;13.198;2023-03-09T01:09:50;1.45;;;1.10;;
69240;SDS011;56352;55.750;13.198;2023-03-09T01:12:16;1.98;;;1.15;;
69240;SDS011;56352;55.750;13.198;2023-03-09T01:14:42;2.58;;;1.00;;
69240;SDS011;56352;55.750;13.198;2023-03-09T01:17:09;1.60;;;1.30;;
69240;SDS011;56352;55.750;13.198;2023-03-09T01:19:35;3.45;;;1.52;;
69240;SDS011;56352;55.750;13.198;2023-03-09T01:22:02;1.92;;;1.48;;
69240;SDS011;56352;55.750;13.198;2023-03-09T01:24:28;1.70;;;1.30;;
69240;SDS011;56352;55.750;13.198;2023-03-09T01:26:55;1.40;;;1.30;;
69240;SDS011;56352;55.750;13.198;2023-03-09T01:29:21;1.80;;;1.33;;
69240;SDS011;56352;55.750;13.198;2023-03-09T01:31:48;1.23;;;1.13;;
69240;SDS011;56352;55.750;13.198;2023-03-09T01:34:14;2.08;;;1.10;;
69240;SDS011;56352;55.750;13.198;2023-03-09T01:36:40;1.80;;;1.05;;
69240;SDS011;56352;55.750;13.198;2023-03-09T01:39:08;1.75;;;1.10;;
69240;SDS011;56352;55.750;13.198;2023-03-09T01:41:35;2.45;;;1.05;;
69240;SDS011;56352;55.750;13.198;2023-03-09T01:44:01;1.88;;;1.08;;
69240;SDS011;56352;55.750;13.198;2023-03-09T01:46:30;1.15;;;0.90;;
69240;SDS011;56352;55.750;13.198;2023-03-09T01:49:08;1.70;;;1.20;;
69240;SDS011;56352;55.750;13.198;2023-03-09T01:54:02;2.53;;;1.10;;
69240;SDS011;56352;55.750;13.198;2023-03-09T01:56:31;3.08;;;1.30;;
69240;SDS011;56352;55.750;13.198;2023-03-09T01:58:57;1.42;;;0.95;;
69240;SDS011;56352;55.750;13.198;2023-03-09T02:01:26;1.70;;;1.08;;
69240;SDS011;56352;55.750;13.198;2023-03-09T02:03:54;1.40;;;1.10;;
69240;SDS011;56352;55.750;13.198;2023-03-09T02:06:22;5.72;;;1.60;;
69240;SDS011;56352;55.750;13.198;2023-03-09T02:08:55;1.95;;;1.15;;
69240;SDS011;56352;55.750;13.198;2023-03-09T02:11:24;0.75;;;0.75;;
69240;SDS011;56352;55.750;13.198;2023-03-09T02:13:51;3.28;;;1.00;;
69240;SDS011;56352;55.750;13.198;2023-03-09T02:16:18;2.45;;;1.10;;
69240;SDS011;56352;55.750;13.198;2023-03-09T02:18:44;1.33;;;0.98;;
69240;SDS011;56352;55.750;13.198;2023-03-09T02:21:15;1.52;;;1.20;;
69240;SDS011;56352;55.750;13.198;2023-03-09T02:23:44;1.50;;;1.40;;
69240;SDS011;56352;55.750;13.198;2023-03-09T02:26:23;5.85;;;1.17;;
69240;SDS011;56352;55.750;13.198;2023-03-09T02:28:54;1.30;;;1.10;;
69240;SDS011;56352;55.750;13.198;2023-03-09T02:31:20;2.97;;;1.15;;
69240;SDS011;56352;55.750;13.198;2023-03-09T02:33:47;3.47;;;1.25;;
69240;SDS011;56352;55.750;13.198;2023-03-09T02:36:13;2.75;;;1.20;;
69240;SDS011;56352;55.750;13.198;2023-03-09T02:38:40;2.88;;;1.42;;
69240;SDS011;56352;55.750;13.198;2023-03-09T02:41:07;1.98;;;1.20;;
69240;SDS011;56352;55.750;13.198;2023-03-09T02:43:36;1.17;;;1.02;;
69240;SDS011;56352;55.750;13.198;2023-03-09T02:46:03;2.17;;;1.23;;
69240;SDS011;56352;55.750;13.198;2023-03-09T02:48:30;2.92;;;1.17;;
69240;SDS011;56352;55.750;13.198;2023-03-09T02:50:59;2.70;;;1.13;;
69240;SDS011;56352;55.750;13.198;2023-03-09T02:53:26;1.40;;;1.05;;
69240;SDS011;56352;55.750;13.198;2023-03-09T02:55:52;2.13;;;1.50;;
69240;SDS011;56352;55.750;13.198;2023-03-09T02:58:18;3.20;;;1.42;;
69240;SDS011;56352;55.750;13.198;2023-03-09T03:00:45;2.30;;;1.20;;
69240;SDS011;56352;55.750;13.198;2023-03-09T03:03:11;2.63;;;1.20;;
69240;SDS011;56352;55.750;13.198;2023-03-09T03:05:38;2.00;;;1.05;;
69240;SDS011;56352;55.750;13.198;2023-03-09T03:08:04;4.15;;;0.90;;
69240;SDS011;56352;55.750;13.198;2023-03-09T03:10:30;2.00;;;1.20;;
69240;SDS011;56352;55.750;13.198;2023-03-09T03:12:57;1.40;;;1.25;;
69240;SDS011;56352;55.750;13.198;2023-03-09T03:15:23;1.83;;;1.38;;
69240;SDS011;56352;55.750;13.198;2023-03-09T03:17:50;2.03;;;1.25;;
69240;SDS011;56352;55.750;13.198;2023-03-09T03:20:16;1.20;;;1.10;;
69240;SDS011;56352;55.750;13.198;2023-03-09T03:22:43;2.88;;;1.40;;
69240;SDS011;56352;55.750;13.198;2023-03-09T03:25:10;1.50;;;1.10;;
69240;SDS011;56352;55.750;13.198;2023-03-09T03:27:36;4.30;;;1.40;;
69240;SDS011;56352;55.750;13.198;2023-03-09T03:30:03;1.58;;;1.40;;
69240;SDS011;56352;55.750;13.198;2023-03-09T03:32:29;1.50;;;1.40;;
69240;SDS011;56352;55.750;13.198;2023-03-09T03:34:56;4.22;;;1.20;;
69240;SDS011;56352;55.750;13.198;2023-03-09T03:37:22;1.65;;;1.00;;
69240;SDS011;56352;55.750;13.198;2023-03-09T03:39:49;3.78;;;1.77;;
69240;SDS011;56352;55.750;13.198;2023-03-09T03:42:15;1.15;;;1.05;;
69240;SDS011;56352;55.750;13.198;2023-03-09T03:44:42;3.47;;;1.08;;
69240;SDS011;56352;55.750;13.198;2023-03-09T03:47:08;1.35;;;1.08;;
69240;SDS011;56352;55.750;13.198;2023-03-09T03:49:35;1.25;;;1.00;;
69240;SDS011;56352;55.750;13.198;2023-03-09T03:52:01;2.05;;;1.30;;
69240;SDS011;56352;55.750;13.198;2023-03-09T03:54:27;2.25;;;1.42;;
69240;SDS011;56352;55.750;13.198;2023-03-09T03:56:54;1.95;;;1.15;;
69240;SDS011;56352;55.750;13.198;2023-03-09T03:59:20;1.52;;;1.00;;
69240;SDS011;56352;55.750;13.198;2023-03-09T04:01:47;1.27;;;1.17;;
69240;SDS011;56352;55.750;13.198;2023-03-09T04:04:13;1.00;;;0.90;;
69240;SDS011;56352;55.750;13.198;2023-03-09T04:06:40;1.85;;;1.08;;
69240;SDS011;56352;55.750;13.198;2023-03-09T04:09:06;2.45;;;1.10;;
69240;SDS011;56352;55.750;13.198;2023-03-09T04:11:33;2.60;;;1.17;;
69240;SDS011;56352;55.750;13.198;2023-03-09T04:13:59;3.33;;;1.35;;
69240;SDS011;56352;55.750;13.198;2023-03-09T04:16:26;1.25;;;1.08;;
69240;SDS011;56352;55.750;13.198;2023-03-09T04:18:52;2.33;;;1.38;;
69240;SDS011;56352;55.750;13.198;2023-03-09T04:21:19;1.88;;;1.23;;
69240;SDS011;56352;55.750;13.198;2023-03-09T04:23:47;1.65;;;1.10;;
69240;SDS011;56352;55.750;13.198;2023-03-09T04:26:13;3.25;;;1.30;;
69240;SDS011;56352;55.750;13.198;2023-03-09T04:28:40;3.85;;;1.38;;
69240;SDS011;56352;55.750;13.198;2023-03-09T04:31:06;1.60;;;1.30;;
69240;SDS011;56352;55.750;13.198;2023-03-09T04:33:32;2.85;;;1.27;;
69240;SDS011;56352;55.750;13.198;2023-03-09T04:35:59;1.67;;;1.38;;
69240;SDS011;56352;55.750;13.198;2023-03-09T04:38:25;2.33;;;1.42;;
69240;SDS011;56352;55.750;13.198;2023-03-09T04:40:52;1.50;;;1.13;;
69240;SDS011;56352;55.750;13.198;2023-03-09T04:43:18;1.58;;;1.10;;
69240;SDS011;56352;55.750;13.198;2023-03-09T04:45:45;3.10;;;1.65;;
69240;SDS011;56352;55.750;13.198;2023-03-09T04:48:11;2.53;;;1.55;;
69240;SDS011;56352;55.750;13.198;2023-03-09T04:50:37;2.67;;;1.80;;
69240;SDS011;56352;55.750;13.198;2023-03-09T04:53:04;2.72;;;2.10;;
69240;SDS011;56352;55.750;13.198;2023-03-09T04:55:30;3.75;;;1.60;;
69240;SDS011;56352;55.750;13.198;2023-03-09T04:57:57;2.75;;;1.45;;
69240;SDS011;56352;55.750;13.198;2023-03-09T05:00:23;2.25;;;1.10;;
69240;SDS011;56352;55.750;13.198;2023-03-09T05:02:50;1.65;;;1.20;;
69240;SDS011;56352;55.750;13.198;2023-03-09T05:05:17;2.90;;;1.15;;
69240;SDS011;56352;55.750;13.198;2023-03-09T05:07:44;1.80;;;1.35;;
69240;SDS011;56352;55.750;13.198;2023-03-09T05:10:10;1.85;;;1.60;;
69240;SDS011;56352;55.750;13.198;2023-03-09T05:12:37;2.47;;;1.58;;
69240;SDS011;56352;55.750;13.198;2023-03-09T05:15:03;2.45;;;2.00;;
69240;SDS011;56352;55.750;13.198;2023-03-09T05:17:30;2.67;;;2.22;;
69240;SDS011;56352;55.750;13.198;2023-03-09T05:19:57;6.55;;;2.45;;
69240;SDS011;56352;55.750;13.198;2023-03-09T05:22:23;1.92;;;1.73;;
69240;SDS011;56352;55.750;13.198;2023-03-09T05:24:50;2.00;;;1.80;;
69240;SDS011;56352;55.750;13.198;2023-03-09T05:27:16;3.05;;;1.80;;
69240;SDS011;56352;55.750;13.198;2023-03-09T05:29:43;1.70;;;1.20;;
69240;SDS011;56352;55.750;13.198;2023-03-09T05:32:09;5.93;;;1.58;;
69240;SDS011;56352;55.750;13.198;2023-03-09T05:34:36;1.48;;;1.20;;
69240;SDS011;56352;55.750;13.198;2023-03-09T05:37:02;1.48;;;1.08;;
69240;SDS011;56352;55.750;13.198;2023-03-09T05:39:28;1.95;;;1.10;;
69240;SDS011;56352;55.750;13.198;2023-03-09T05:41:55;2.65;;;1.17;;
69240;SDS011;56352;55.750;13.198;2023-03-09T05:44:21;2.38;;;1.13;;
69240;SDS011;56352;55.750;13.198;2023-03-09T05:46:49;2.97;;;1.45;;
69240;SDS011;56352;55.750;13.198;2023-03-09T05:49:15;1.35;;;1.15;;
69240;SDS011;56352;55.750;13.198;2023-03-09T05:51:42;1.40;;;1.13;;
69240;SDS011;56352;55.750;13.198;2023-03-09T05:54:08;2.03;;;1.20;;
69240;SDS011;56352;55.750;13.198;2023-03-09T05:56:35;2.05;;;1.58;;
69240;SDS011;56352;55.750;13.198;2023-03-09T05:59:01;2.25;;;1.23;;
69240;SDS011;56352;55.750;13.198;2023-03-09T06:01:29;3.42;;;1.50;;
69240;SDS011;56352;55.750;13.198;2023-03-09T06:03:56;1.83;;;1.30;;
69240;SDS011;56352;55.750;13.198;2023-03-09T06:06:22;2.97;;;1.23;;
69240;SDS011;56352;55.750;13.198;2023-03-09T06:08:49;2.95;;;1.40;;
69240;SDS011;56352;55.750;13.198;2023-03-09T06:11:15;4.00;;;1.23;;
69240;SDS011;56352;55.750;13.198;2023-03-09T06:13:42;1.48;;;1.30;;
69240;SDS011;56352;55.750;13.198;2023-03-09T06:16:12;1.13;;;1.02;;
69240;SDS011;56352;55.750;13.198;2023-03-09T06:18:38;1.35;;;1.15;;
69240;SDS011;56352;55.750;13.198;2023-03-09T06:21:05;1.15;;;0.98;;
69240;SDS011;56352;55.750;13.198;2023-03-09T06:23:33;2.90;;;1.20;;
69240;SDS011;56352;55.750;13.198;2023-03-09T06:26:02;1.33;;;1.23;;
69240;SDS011;56352;55.750;13.198;2023-03-09T06:28:29;1.65;;;1.55;;
69240;SDS011;56352;55.750;13.198;2023-03-09T06:30:56;1.48;;;1.30;;
69240;SDS011;56352;55.750;13.198;2023-03-09T06:33:23;2.85;;;1.38;;
69240;SDS011;56352;55.750;13.198;2023-03-09T06:35:52;1.75;;;1.20;;
69240;SDS011;56352;55.750;13.198;2023-03-09T06:38:18;4.22;;;1.13;;
69240;SDS011;56352;55.750;13.198;2023-03-09T06:40:45;1.20;;;1.10;;
69240;SDS011;56352;55.750;13.198;2023-03-09T06:43:12;2.65;;;1.02;;
69240;SDS011;56352;55.750;13.198;2023-03-09T06:45:38;3.53;;;1.02;;
69240;SDS011;56352;55.750;13.198;2023-03-09T06:48:04;3.53;;;1.20;;
69240;SDS011;56352;55.750;13.198;2023-03-09T06:50:31;1.67;;;1.58;;
69240;SDS011;56352;55.750;13.198;2023-03-09T06:52:57;7.03;;;1.88;;
69240;SDS011;56352;55.750;13.198;2023-03-09T06:55:24;2.95;;;1.50;;
69240;SDS011;56352;55.750;13.198;2023-03-09T06:57:50;2.85;;;1.20;;
69240;SDS011;56352;55.750;13.198;2023-03-09T07:00:17;2.72;;;1.20;;
69240;SDS011;56352;55.750;13.198;2023-03-09T07:02:44;2.90;;;2.20;;
69240;SDS011;56352;55.750;13.198;2023-03-09T07:05:10;3.67;;;1.20;;
69240;SDS011;56352;55.750;13.198;2023-03-09T07:07:36;2.20;;;1.15;;
69240;SDS011;56352;55.750;13.198;2023-03-09T07:10:03;2.55;;;0.90;;
69240;SDS011;56352;55.750;13.198;2023-03-09T07:12:32;1.00;;;0.90;;
69240;SDS011;56352;55.750;13.198;2023-03-09T07:14:59;2.42;;;1.38;;
69240;SDS011;56352;55.750;13.198;2023-03-09T07:17:25;2.63;;;1.65;;
69240;SDS011;56352;55.750;13.198;2023-03-09T07:19:52;3.63;;;1.35;;
69240;SDS011;56352;55.750;13.198;2023-03-09T07:22:18;4.03;;;1.50;;
69240;SDS011;56352;55.750;13.198;2023-03-09T07:24:44;1.92;;;1.20;;
69240;SDS011;56352;55.750;13.198;2023-03-09T07:27:11;1.52;;;1.00;;
69240;SDS011;56352;55.750;13.198;2023-03-09T07:29:37;1.60;;;1.10;;
69240;SDS011;56352;55.750;13.198;2023-03-09T07:32:06;1.17;;;0.93;;
69240;SDS011;56352;55.750;13.198;2023-03-09T07:34:33;2.80;;;1.10;;
69240;SDS011;56352;55.750;13.198;2023-03-09T07:36:59;1.67;;;0.85;;
69240;SDS011;56352;55.750;13.198;2023-03-09T07:39:26;1.23;;;1.05;;
69240;SDS011;56352;55.750;13.198;2023-03-09T07:41:52;2.25;;;0.82;;
69240;SDS011;56352;55.750;13.198;2023-03-09T07:44:19;1.40;;;0.90;;
69240;SDS011;56352;55.750;13.198;2023-03-09T07:46:45;2.42;;;1.17;;
69240;SDS011;56352;55.750;13.198;2023-03-09T07:49:12;3.40;;;1.10;;
69240;SDS011;56352;55.750;13.198;2023-03-09T07:51:39;1.48;;;0.95;;
69240;SDS011;56352;55.750;13.198;2023-03-09T07:54:06;2.55;;;1.17;;
69240;SDS011;56352;55.750;13.198;2023-03-09T07:56:32;1.33;;;0.98;;
69240;SDS011;56352;55.750;13.198;2023-03-09T07:58:59;2.28;;;1.13;;
69240;SDS011;56352;55.750;13.198;2023-03-09T08:01:25;2.65;;;1.00;;
69240;SDS011;56352;55.750;13.198;2023-03-09T08:03:53;1.20;;;1.10;;
69240;SDS011;56352;55.750;13.198;2023-03-09T08:06:19;2.53;;;1.10;;
69240;SDS011;56352;55.750;13.198;2023-03-09T08:08:46;1.30;;;1.02;;
69240;SDS011;56352;55.750;13.198;2023-03-09T08:11:13;1.02;;;0.80;;
69240;SDS011;56352;55.750;13.198;2023-03-09T08:13:39;1.38;;;1.00;;
69240;SDS011;56352;55.750;13.198;2023-03-09T08:16:07;2.17;;;1.23;;
69240;SDS011;56352;55.750;13.198;2023-03-09T08:18:34;1.40;;;1.10;;
69240;SDS011;56352;55.750;13.198;2023-03-09T08:21:04;3.63;;;1.17;;
69240;SDS011;56352;55.750;13.198;2023-03-09T08:23:32;0.98;;;0.85;;
69240;SDS011;56352;55.750;13.198;2023-03-09T08:25:58;2.65;;;1.10;;
69240;SDS011;56352;55.750;13.198;2023-03-09T08:28:24;1.38;;;0.80;;
69240;SDS011;56352;55.750;13.198;2023-03-09T08:30:51;1.25;;;1.00;;
69240;SDS011;56352;55.750;13.198;2023-03-09T08:33:17;2.47;;;1.20;;
69240;SDS011;56352;55.750;13.198;2023-03-09T08:35:44;1.60;;;1.00;;
69240;SDS011;56352;55.750;13.198;2023-03-09T08:38:10;2.85;;;1.20;;
69240;SDS011;56352;55.750;13.198;2023-03-09T08:40:37;2.75;;;1.10;;
69240;SDS011;56352;55.750;13.198;2023-03-09T08:43:04;2.38;;;1.00;;
69240;SDS011;56352;55.750;13.198;2023-03-09T08:45:31;3.25;;;1.33;;
69240;SDS011;56352;55.750;13.198;2023-03-09T08:47:57;1.88;;;1.08;;
69240;SDS011;56352;55.750;13.198;2023-03-09T08:50:24;3.28;;;1.67;;
69240;SDS011;56352;55.750;13.198;2023-03-09T08:52:50;1.00;;;0.95;;
69240;SDS011;56352;55.750;13.198;2023-03-09T08:55:17;1.58;;;0.90;;
69240;SDS011;56352;55.750;13.198;2023-03-09T08:57:43;2.85;;;1.05;;
69240;SDS011;56352;55.750;13.198;2023-03-09T09:00:10;1.08;;;0.85;;
69240;SDS011;56352;55.750;13.198;2023-03-09T09:02:37;0.85;;;0.80;;
69240;SDS011;56352;55.750;13.198;2023-03-09T09:05:04;0.80;;;0.75;;
69240;SDS011;56352;55.750;13.198;2023-03-09T09:07:30;2.03;;;0.90;;
69240;SDS011;56352;55.750;13.198;2023-03-09T09:09:57;1.42;;;1.00;;
69240;SDS011;56352;55.750;13.198;2023-03-09T09:12:24;1.65;;;0.90;;
69240;SDS011;56352;55.750;13.198;2023-03-09T09:14:54;1.35;;;1.10;;
69240;SDS011;56352;55.750;13.198;2023-03-09T09:17:20;1.38;;;0.90;;
69240;SDS011;56352;55.750;13.198;2023-03-09T09:19:47;1.67;;;0.93;;
69240;SDS011;56352;55.750;13.198;2023-03-09T09:22:13;1.63;;;0.90;;
69240;SDS011;56352;55.750;13.198;2023-03-09T09:24:40;0.98;;;0.90;;
69240;SDS011;56352;55.750;13.198;2023-03-09T09:27:06;1.27;;;1.08;;
69240;SDS011;56352;55.750;13.198;2023-03-09T09:29:34;2.00;;;0.90;;
69240;SDS011;56352;55.750;13.198;2023-03-09T09:32:00;1.65;;;0.90;;
69240;SDS011;56352;55.750;13.198;2023-03-09T09:34:30;1.77;;;0.90;;
69240;SDS011;56352;55.750;13.198;2023-03-09T09:36:58;1.33;;;0.90;;
69240;SDS011;56352;55.750;13.198;2023-03-09T09:39:27;1.97;;;1.00;;
69240;SDS011;56352;55.750;13.198;2023-03-09T09:42:00;0.85;;;0.80;;
69240;SDS011;56352;55.750;13.198;2023-03-09T09:47:26;2.17;;;0.90;;
69240;SDS011;56352;55.750;13.198;2023-03-09T09:49:54;3.10;;;1.17;;
69240;SDS011;56352;55.750;13.198;2023-03-09T09:52:25;0.93;;;0.80;;
69240;SDS011;56352;55.750;13.198;2023-03-09T09:55:37;1.63;;;0.82;;
69240;SDS011;56352;55.750;13.198;2023-03-09T09:57:45;0.90;;;0.80;;
69240;SDS011;56352;55.750;13.198;2023-03-09T10:05:31;1.27;;;1.05;;
69240;SDS011;56352;55.750;13.198;2023-03-09T10:08:01;1.02;;;0.80;;
69240;SDS011;56352;55.750;13.198;2023-03-09T10:10:30;1.60;;;0.75;;
69240;SDS011;56352;55.750;13.198;2023-03-09T10:12:58;0.88;;;0.75;;
69240;SDS011;56352;55.750;13.198;2023-03-09T10:15:29;1.00;;;0.80;;
69240;SDS011;56352;55.750;13.198;2023-03-09T10:17:57;1.17;;;1.00;;
69240;SDS011;56352;55.750;13.198;2023-03-09T10:20:27;1.13;;;0.90;;
69240;SDS011;56352;55.750;13.198;2023-03-09T10:22:56;1.23;;;0.90;;
69240;SDS011;56352;55.750;13.198;2023-03-09T10:25:23;0.95;;;0.90;;
69240;SDS011;56352;55.750;13.198;2023-03-09T10:30:19;2.15;;;0.90;;
69240;SDS011;56352;55.750;13.198;2023-03-09T10:33:01;1.10;;;0.93;;
69240;SDS011;56352;55.750;13.198;2023-03-09T10:37:56;1.95;;;0.93;;
69240;SDS011;56352;55.750;13.198;2023-03-09T10:40:24;2.50;;;0.80;;
69240;SDS011;56352;55.750;13.198;2023-03-09T10:42:51;1.33;;;1.00;;
69240;SDS011;56352;55.750;13.198;2023-03-09T10:50:16;0.70;;;0.70;;
69240;SDS011;56352;55.750;13.198;2023-03-09T10:52:51;2.28;;;0.90;;
69240;SDS011;56352;55.750;13.198;2023-03-09T10:55:22;1.05;;;0.95;;
69240;SDS011;56352;55.750;13.198;2023-03-09T10:57:57;0.80;;;0.80;;
69240;SDS011;56352;55.750;13.198;2023-03-09T11:00:24;1.27;;;0.80;;
69240;SDS011;56352;55.750;13.198;2023-03-09T11:02:55;0.85;;;0.85;;
69240;SDS011;56352;55.750;13.198;2023-03-09T11:05:27;3.00;;;0.88;;
69240;SDS011;56352;55.750;13.198;2023-03-09T11:07:54;2.33;;;0.80;;
69240;SDS011;56352;55.750;13.198;2023-03-09T11:10:25;0.82;;;0.70;;
69240;SDS011;56352;55.750;13.198;2023-03-09T11:12:53;0.77;;;0.77;;
69240;SDS011;56352;55.750;13.198;2023-03-09T11:15:35;1.50;;;0.80;;
69240;SDS011;56352;55.750;13.198;2023-03-09T11:18:08;0.98;;;0.70;;
69240;SDS011;56352;55.750;13.198;2023-03-09T11:20:53;0.80;;;0.80;;
69240;SDS011;56352;55.750;13.198;2023-03-09T11:26:01;2.33;;;0.80;;
69240;SDS011;56352;55.750;13.198;2023-03-09T11:28:44;1.67;;;0.90;;
69240;SDS011;56352;55.750;13.198;2023-03-09T11:31:14;2.70;;;1.10;;
69240;SDS011;56352;55.750;13.198;2023-03-09T11:33:42;1.25;;;0.90;;
69240;SDS011;56352;55.750;13.198;2023-03-09T11:36:10;2.20;;;0.88;;
69240;SDS011;56352;55.750;13.198;2023-03-09T11:38:37;1.10;;;1.00;;
69240;SDS011;56352;55.750;13.198;2023-03-09T11:41:11;2.17;;;0.95;;
69240;SDS011;56352;55.750;13.198;2023-03-09T11:43:40;1.48;;;1.13;;
69240;SDS011;56352;55.750;13.198;2023-03-09T11:46:10;2.17;;;1.00;;
69240;SDS011;56352;55.750;13.198;2023-03-09T11:48:48;3.35;;;1.00;;
69240;SDS011;56352;55.750;13.198;2023-03-09T11:51:21;1.02;;;0.90;;
69240;SDS011;56352;55.750;13.198;2023-03-09T11:56:37;1.90;;;1.10;;
69240;SDS011;56352;55.750;13.198;2023-03-09T12:01:42;1.10;;;1.00;;
69240;SDS011;56352;55.750;13.198;2023-03-09T12:04:11;1.55;;;1.10;;
69240;SDS011;56352;55.750;13.198;2023-03-09T12:11:57;2.35;;;1.00;;
69240;SDS011;56352;55.750;13.198;2023-03-09T12:16:53;1.85;;;1.05;;
69240;SDS011;56352;55.750;13.198;2023-03-09T12:19:21;2.03;;;1.00;;
69240;SDS011;56352;55.750;13.198;2023-03-09T12:21:58;1.00;;;0.90;;
69240;SDS011;56352;55.750;13.198;2023-03-09T12:27:26;1.08;;;0.90;;
69240;SDS011;56352;55.750;13.198;2023-03-09T12:29:54;1.23;;;0.93;;
69240;SDS011;56352;55.750;13.198;2023-03-09T12:34:48;1.00;;;0.90;;
69240;SDS011;56352;55.750;13.198;2023-03-09T12:40:20;2.30;;;0.90;;
69240;SDS011;56352;55.750;13.198;2023-03-09T12:42:44;1.83;;;1.00;;
69240;SDS011;56352;55.750;13.198;2023-03-09T12:47:41;1.65;;;1.17;;
69240;SDS011;56352;55.750;13.198;2023-03-09T12:50:23;1.77;;;1.00;;
69240;SDS011;56352;55.750;13.198;2023-03-09T12:57:46;1.17;;;1.00;;
69240;SDS011;56352;55.750;13.198;2023-03-09T13:02:50;1.10;;;0.95;;
69240;SDS011;56352;55.750;13.198;2023-03-09T13:05:27;1.00;;;0.90;;
69240;SDS011;56352;55.750;13.198;2023-03-09T13:07:56;1.48;;;0.90;;
69240;SDS011;56352;55.750;13.198;2023-03-09T13:10:27;1.20;;;1.00;;
69240;SDS011;56352;55.750;13.198;2023-03-09T13:12:55;2.00;;;1.08;;
69240;SDS011;56352;55.750;13.198;2023-03-09T13:15:23;1.50;;;1.00;;
69240;SDS011;56352;55.750;13.198;2023-03-09T13:20:22;1.20;;;1.10;;
69240;SDS011;56352;55.750;13.198;2023-03-09T13:22:51;1.73;;;1.13;;
69240;SDS011;56352;55.750;13.198;2023-03-09T13:25:33;1.20;;;1.00;;
69240;SDS011;56352;55.750;13.198;2023-03-09T13:28:02;1.52;;;0.88;;
69240;SDS011;56352;55.750;13.198;2023-03-09T13:30:29;1.48;;;1.08;;
69240;SDS011;56352;55.750;13.198;2023-03-09T13:35:26;1.00;;;0.90;;
69240;SDS011;56352;55.750;13.198;2023-03-09T13:37:58;1.15;;;0.90;;
69240;SDS011;56352;55.750;13.198;2023-03-09T13:40:46;2.30;;;1.00;;
69240;SDS011;56352;55.750;13.198;2023-03-09T13:43:14;1.75;;;1.08;;
69240;SDS011;56352;55.750;13.198;2023-03-09T13:45:41;1.00;;;0.90;;
69240;SDS011;56352;55.750;13.198;2023-03-09T13:48:19;1.10;;;1.00;;
69240;SDS011;56352;55.750;13.198;2023-03-09T13:50:46;1.77;;;1.00;;
69240;SDS011;56352;55.750;13.198;2023-03-09T13:58:21;1.10;;;1.00;;
69240;SDS011;56352;55.750;13.198;2023-03-09T14:00:54;1.50;;;1.10;;
69240;SDS011;56352;55.750;13.198;2023-03-09T14:03:21;1.20;;;0.90;;
69240;SDS011;56352;55.750;13.198;2023-03-09T14:05:59;1.50;;;0.93;;
69240;SDS011;56352;55.750;13.198;2023-03-09T14:08:49;1.02;;;0.93;;
69240;SDS011;56352;55.750;13.198;2023-03-09T14:11:22;2.15;;;1.00;;
69240;SDS011;56352;55.750;13.198;2023-03-09T14:13:53;1.85;;;0.98;;
69240;SDS011;56352;55.750;13.198;2023-03-09T14:16:23;1.83;;;1.00;;
69240;SDS011;56352;55.750;13.198;2023-03-09T14:18:50;1.63;;;1.00;;
69240;SDS011;56352;55.750;13.198;2023-03-09T14:23:44;1.52;;;1.00;;
69240;SDS011;56352;55.750;13.198;2023-03-09T14:26:11;1.30;;;1.00;;
69240;SDS011;56352;55.750;13.198;2023-03-09T14:28:38;1.48;;;1.10;;
69240;SDS011;56352;55.750;13.198;2023-03-09T14:31:18;1.20;;;0.80;;
69240;SDS011;56352;55.750;13.198;2023-03-09T14:36:20;1.25;;;1.10;;
69240;SDS011;56352;55.750;13.198;2023-03-09T14:38:57;1.17;;;0.90;;
69240;SDS011;56352;55.750;13.198;2023-03-09T14:41:26;2.58;;;0.90;;
69240;SDS011;56352;55.750;13.198;2023-03-09T14:43:52;1.25;;;1.00;;
69240;SDS011;56352;55.750;13.198;2023-03-09T14:46:20;1.33;;;0.85;;
